Time;durP1;ratioP1;P1;durP2;ratioP2;P2;SDS_P1;SDS_P2;PMS_P1;PMS_P2;Temp;Humidity;BMP_temperature;BMP_pressure;BME280_temperature;BME280_humidity;BME280_pressure;Samples;Min_cycle;Max_cycle;Signal;HPM_P1;HPM_P2
2024/01/01 00:00:14;;;;;;;19.35;12.32;;;8.20;99.90;;;;;;4987262;28;20039;-72
2024/01/01 00:02:40;;;;;;;12.27;7.85;;;8.20;99.90;;;;;;4986671;28;20034;-72
2024/01/01 00:05:07;;;;;;;14.75;8.57;;;8.30;99.90;;;;;;4974577;28;20050;-72
2024/01/01 00:07:33;;;;;;;14.77;8.35;;;8.20;99.90;;;;;;4976876;28;20480;-72
2024/01/01 00:09:59;;;;;;;13.82;8.18;;;8.30;99.90;;;;;;4968355;28;20038;-73
2024/01/01 00:12:25;;;;;;;15.80;9.38;;;8.30;99.90;;;;;;4986605;28;20038;-72
2024/01/01 00:14:51;;;;;;;8.07;6.22;;;8.30;99.90;;;;;;4983791;28;20035;-72
2024/01/01 00:17:17;;;;;;;11.15;4.97;;;8.30;99.90;;;;;;4987829;28;20503;-73
2024/01/01 00:19:43;;;;;;;8.93;5.13;;;8.30;99.90;;;;;;4988227;28;20042;-73
2024/01/01 00:22:09;;;;;;;11.20;6.07;;;8.30;99.90;;;;;;4984320;28;20038;-72
2024/01/01 00:24:35;;;;;;;6.13;3.95;;;8.40;99.90;;;;;;4987180;28;20439;-72
2024/01/01 00:27:00;;;;;;;7.57;4.10;;;8.40;99.90;;;;;;4987351;28;20049;-72
2024/01/01 00:29:27;;;;;;;15.70;6.45;;;8.40;99.90;;;;;;4986440;28;20529;-73
2024/01/01 00:31:52;;;;;;;8.23;5.18;;;8.40;99.90;;;;;;4988736;28;20042;-73
2024/01/01 00:34:19;;;;;;;8.85;4.82;;;8.40;99.90;;;;;;4983356;28;20831;-73
2024/01/01 00:36:44;;;;;;;8.35;5.32;;;8.40;99.90;;;;;;4986855;28;20046;-73
2024/01/01 00:39:10;;;;;;;14.85;5.20;;;8.50;99.90;;;;;;4987305;28;20100;-72
2024/01/01 00:41:39;;;;;;;18.20;6.40;;;8.50;99.90;;;;;;4986620;28;20259;-72
2024/01/01 00:44:05;;;;;;;19.33;7.40;;;8.50;99.90;;;;;;4990279;28;20117;-72
2024/01/01 00:46:31;;;;;;;14.90;7.18;;;8.50;99.90;;;;;;4984031;28;20128;-73
2024/01/01 00:48:57;;;;;;;7.50;5.15;;;8.50;99.90;;;;;;4984936;28;20042;-73
2024/01/01 00:51:23;;;;;;;9.63;5.35;;;8.50;99.90;;;;;;4967853;28;20042;-73
2024/01/01 00:53:49;;;;;;;10.85;7.32;;;8.50;99.90;;;;;;4990204;28;20149;-73
2024/01/01 00:56:15;;;;;;;18.40;10.10;;;8.50;99.90;;;;;;4985452;28;20034;-72
2024/01/01 00:58:41;;;;;;;13.10;7.55;;;8.60;99.90;;;;;;4985188;28;20108;-73
2024/01/01 01:01:07;;;;;;;8.85;5.60;;;8.60;99.90;;;;;;4980212;28;20030;-72
2024/01/01 01:03:34;;;;;;;11.65;5.55;;;8.60;99.90;;;;;;5002256;28;20042;-72
2024/01/01 01:06:00;;;;;;;8.80;5.40;;;8.60;99.90;;;;;;4982459;28;20050;-72
2024/01/01 01:08:26;;;;;;;6.35;4.63;;;8.60;99.90;;;;;;4989187;28;20046;-73
2024/01/01 01:10:51;;;;;;;6.70;4.40;;;8.60;99.90;;;;;;4972929;28;20065;-73
2024/01/01 01:13:17;;;;;;;9.07;5.32;;;8.70;99.90;;;;;;4990553;28;20242;-72
2024/01/01 01:15:43;;;;;;;7.10;4.30;;;8.60;99.90;;;;;;4990339;28;20101;-72
2024/01/01 01:18:09;;;;;;;30.02;19.13;;;8.70;99.90;;;;;;4986750;28;20118;-72
2024/01/01 01:20:35;;;;;;;8.95;5.78;;;8.60;99.90;;;;;;4973924;28;20041;-72
2024/01/01 01:23:00;;;;;;;9.07;6.20;;;8.60;99.90;;;;;;4987615;28;20121;-72
2024/01/01 01:25:26;;;;;;;21.90;7.82;;;8.60;99.90;;;;;;4990794;28;20136;-72
2024/01/01 01:27:52;;;;;;;12.15;4.35;;;8.60;99.90;;;;;;4986967;28;20048;-72
2024/01/01 01:30:18;;;;;;;6.90;4.18;;;8.60;99.90;;;;;;4988557;28;20046;-73
2024/01/01 01:32:43;;;;;;;12.88;5.15;;;8.60;99.90;;;;;;4974128;28;20080;-73
2024/01/01 01:35:10;;;;;;;6.72;4.07;;;8.50;99.90;;;;;;4980370;28;20046;-72
2024/01/01 01:37:36;;;;;;;7.63;4.35;;;8.60;99.90;;;;;;4973414;28;20400;-72
2024/01/01 01:40:03;;;;;;;10.90;4.90;;;8.60;99.90;;;;;;4971961;28;20049;-72
2024/01/01 01:42:29;;;;;;;7.07;4.38;;;8.60;99.90;;;;;;4978065;28;20041;-72
2024/01/01 01:44:55;;;;;;;7.57;4.20;;;8.60;99.90;;;;;;4983940;28;20046;-72
2024/01/01 01:47:26;;;;;;;10.88;4.65;;;8.60;99.90;;;;;;4983085;28;20042;-73
2024/01/01 01:49:52;;;;;;;11.10;5.97;;;8.60;99.90;;;;;;4986876;28;20042;-72
2024/01/01 01:52:18;;;;;;;7.93;4.70;;;8.60;99.90;;;;;;4978620;28;20046;-72
2024/01/01 01:54:46;;;;;;;14.43;5.68;;;8.60;99.90;;;;;;4984308;28;20042;-72
2024/01/01 01:57:14;;;;;;;8.88;4.63;;;8.60;99.90;;;;;;4987509;28;20490;-73
2024/01/01 01:59:43;;;;;;;8.95;5.63;;;8.60;99.90;;;;;;4977536;28;20047;-72
2024/01/01 02:02:11;;;;;;;7.20;4.80;;;8.60;99.90;;;;;;4973731;28;20030;-73
2024/01/01 02:04:36;;;;;;;8.10;5.18;;;8.60;99.90;;;;;;4989816;28;20479;-73
2024/01/01 02:07:02;;;;;;;9.70;4.35;;;8.50;99.90;;;;;;4988812;28;20053;-72
2024/01/01 02:09:29;;;;;;;6.75;4.40;;;8.60;99.90;;;;;;4985210;28;20137;-71
2024/01/01 02:11:55;;;;;;;6.47;3.85;;;8.60;99.90;;;;;;4987685;28;20065;-72
2024/01/01 02:14:22;;;;;;;6.30;4.10;;;8.60;99.90;;;;;;4980415;28;20470;-72
2024/01/01 02:16:48;;;;;;;7.63;4.38;;;8.60;99.90;;;;;;4986862;28;20042;-73
2024/01/01 02:19:20;;;;;;;8.15;3.92;;;8.60;99.90;;;;;;4988497;28;20141;-72
2024/01/01 02:21:48;;;;;;;5.47;2.80;;;8.60;99.90;;;;;;4975300;28;20049;-73
2024/01/01 02:24:15;;;;;;;9.77;3.90;;;8.60;99.90;;;;;;4989044;28;20042;-73
2024/01/01 02:26:43;;;;;;;4.57;2.22;;;8.60;99.90;;;;;;4972151;28;20406;-73
2024/01/01 02:29:09;;;;;;;5.30;3.25;;;8.50;99.90;;;;;;4987853;28;20050;-72
2024/01/01 02:31:35;;;;;;;3.08;2.20;;;8.50;99.90;;;;;;4988645;28;20042;-73
2024/01/01 02:34:00;;;;;;;5.40;3.13;;;8.50;99.90;;;;;;4988062;28;20053;-73
2024/01/01 02:36:27;;;;;;;11.10;4.25;;;8.50;99.90;;;;;;4985685;28;20048;-72
2024/01/01 02:38:52;;;;;;;8.85;3.63;;;8.50;99.90;;;;;;4988995;28;20046;-73
2024/01/01 02:41:18;;;;;;;4.55;2.83;;;8.50;99.90;;;;;;4972108;28;20402;-74
2024/01/01 02:43:44;;;;;;;4.25;2.10;;;8.40;99.90;;;;;;4984739;28;20042;-73
2024/01/01 02:46:09;;;;;;;4.65;2.20;;;8.30;99.90;;;;;;4986745;28;20117;-74
2024/01/01 02:48:35;;;;;;;6.97;3.08;;;8.10;99.90;;;;;;4985455;28;20414;-74
2024/01/01 02:51:09;;;;;;;6.40;2.45;;;8.10;99.90;;;;;;5138332;27;20495;-72
2024/01/01 02:53:35;;;;;;;6.18;2.08;;;8.00;99.90;;;;;;5122580;28;20134;-71
2024/01/01 02:56:00;;;;;;;3.17;1.63;;;8.00;99.90;;;;;;5121751;28;20044;-72
2024/01/01 02:58:27;;;;;;;3.80;1.60;;;7.90;99.90;;;;;;5116471;28;20127;-72
2024/01/01 03:00:52;;;;;;;3.38;1.65;;;7.80;99.90;;;;;;5103811;28;20063;-71
2024/01/01 03:03:19;;;;;;;2.83;2.22;;;7.90;99.90;;;;;;5101804;28;20052;-72
2024/01/01 03:05:45;;;;;;;3.67;2.22;;;7.80;99.90;;;;;;5103883;28;20044;-72
2024/01/01 03:08:11;;;;;;;3.80;1.92;;;7.80;99.90;;;;;;5100963;28;20044;-71
2024/01/01 03:10:37;;;;;;;3.38;1.67;;;7.80;99.90;;;;;;5104533;28;20040;-72
2024/01/01 03:13:03;;;;;;;1.95;1.40;;;7.80;99.90;;;;;;5101417;28;20089;-72
2024/01/01 03:15:29;;;;;;;11.75;2.97;;;7.80;99.90;;;;;;5103125;28;20427;-75
2024/01/01 03:17:55;;;;;;;9.23;3.83;;;7.70;99.90;;;;;;5102800;28;20504;-74
2024/01/01 03:20:22;;;;;;;6.60;4.15;;;7.70;99.90;;;;;;5104167;28;20448;-73
2024/01/01 03:22:48;;;;;;;1.95;1.17;;;7.70;99.90;;;;;;5081912;28;20035;-72
2024/01/01 03:25:14;;;;;;;0.98;0.63;;;7.60;99.90;;;;;;5102573;28;20044;-72
2024/01/01 03:27:40;;;;;;;4.00;0.85;;;7.60;99.90;;;;;;5102635;28;20374;-72
2024/01/01 03:30:06;;;;;;;0.93;0.63;;;7.60;99.90;;;;;;5101168;28;20130;-72
2024/01/01 03:32:33;;;;;;;1.95;0.60;;;7.60;99.90;;;;;;5102932;28;20111;-71
2024/01/01 03:34:59;;;;;;;1.25;0.50;;;7.60;99.90;;;;;;5085600;28;20435;-72
2024/01/01 03:37:25;;;;;;;0.73;0.68;;;7.50;99.90;;;;;;5100674;28;20153;-73
2024/01/01 03:39:50;;;;;;;0.90;0.63;;;7.60;99.90;;;;;;5103461;28;20093;-75
2024/01/01 03:42:16;;;;;;;1.15;0.77;;;7.50;99.90;;;;;;5087757;28;20083;-75
2024/01/01 03:44:42;;;;;;;3.13;0.60;;;7.50;99.90;;;;;;5096146;28;20032;-74
2024/01/01 03:47:08;;;;;;;2.67;0.80;;;7.50;99.90;;;;;;5089117;28;20140;-73
2024/01/01 03:49:34;;;;;;;0.30;0.10;;;7.40;99.90;;;;;;5103832;28;20195;-73
2024/01/01 03:52:00;;;;;;;3.80;0.45;;;7.40;99.90;;;;;;5087930;28;20104;-72
2024/01/01 03:54:25;;;;;;;0.55;0.30;;;7.40;99.90;;;;;;5104248;28;20377;-72
2024/01/01 03:56:51;;;;;;;1.02;0.40;;;7.40;99.90;;;;;;5088347;28;20118;-72
2024/01/01 03:59:17;;;;;;;0.30;0.28;;;7.40;99.90;;;;;;5102728;28;20036;-72
2024/01/01 04:01:43;;;;;;;0.40;0.20;;;7.40;99.90;;;;;;5096120;28;20040;-72
2024/01/01 04:04:09;;;;;;;0.20;0.20;;;7.40;99.90;;;;;;5090156;28;20127;-72
2024/01/01 04:06:35;;;;;;;0.40;0.20;;;7.30;99.90;;;;;;5093989;28;20108;-72
2024/01/01 04:09:02;;;;;;;2.58;0.32;;;7.40;99.90;;;;;;5089822;28;20072;-72
2024/01/01 04:11:28;;;;;;;0.93;0.65;;;7.40;99.90;;;;;;5076713;28;20028;-73
2024/01/01 04:13:53;;;;;;;1.42;0.68;;;7.30;99.90;;;;;;5092836;28;20092;-72
2024/01/01 04:16:19;;;;;;;3.17;1.20;;;7.30;99.90;;;;;;5090507;28;20036;-72
2024/01/01 04:18:45;;;;;;;2.40;0.77;;;7.30;99.90;;;;;;5091814;28;20160;-72
2024/01/01 04:21:11;;;;;;;1.25;0.60;;;7.30;99.90;;;;;;5093441;28;20071;-72
2024/01/01 04:23:37;;;;;;;7.88;2.10;;;7.30;99.90;;;;;;5092346;28;20119;-74
2024/01/01 04:26:02;;;;;;;2.53;1.80;;;7.30;99.90;;;;;;5089776;28;20048;-73
2024/01/01 04:28:28;;;;;;;3.15;1.13;;;7.30;99.90;;;;;;5087950;28;20174;-74
2024/01/01 04:30:54;;;;;;;5.22;0.52;;;7.30;99.90;;;;;;5091162;28;20208;-75
2024/01/01 04:33:20;;;;;;;2.10;0.82;;;7.20;99.90;;;;;;5094157;28;20047;-77
2024/01/01 04:35:46;;;;;;;2.38;0.73;;;7.20;99.90;;;;;;5098486;28;20449;-76
2024/01/01 04:38:12;;;;;;;2.13;0.47;;;7.20;99.90;;;;;;5105395;28;20477;-76
2024/01/01 04:40:39;;;;;;;0.40;0.40;;;7.20;99.90;;;;;;5099358;28;20070;-76
2024/01/01 04:43:04;;;;;;;0.10;0.10;;;7.20;99.90;;;;;;5079809;28;20111;-77
2024/01/01 04:45:36;;;;;;;2.65;1.00;;;7.10;99.90;;;;;;5084098;28;20044;-78
2024/01/01 04:48:02;;;;;;;0.52;0.35;;;7.10;99.90;;;;;;5090938;28;20044;-77
2024/01/01 04:50:30;;;;;;;3.85;0.65;;;7.10;99.90;;;;;;5094110;28;20489;-77
2024/01/01 04:52:55;;;;;;;3.88;0.38;;;7.10;99.90;;;;;;5072448;28;20522;-76
2024/01/01 04:55:21;;;;;;;3.42;0.30;;;7.10;99.90;;;;;;5088558;28;20118;-77
2024/01/01 04:57:47;;;;;;;2.90;0.45;;;7.10;99.90;;;;;;5070693;28;20097;-76
2024/01/01 05:00:14;;;;;;;0.95;0.22;;;7.10;99.90;;;;;;5064062;28;20036;-75
2024/01/01 05:02:40;;;;;;;4.18;0.52;;;7.10;99.90;;;;;;5089081;28;20075;-80
2024/01/01 05:05:08;;;;;;;1.70;0.28;;;7.10;99.90;;;;;;5073623;28;20086;-79
2024/01/01 05:07:35;;;;;;;0.13;0.03;;;7.10;99.90;;;;;;5090608;28;20531;-77
2024/01/01 05:10:01;;;;;;;0.13;0.05;;;7.10;99.90;;;;;;5072704;28;20048;-76
2024/01/01 05:12:27;;;;;;;0.70;0.25;;;7.10;99.90;;;;;;5089337;28;20036;-75
2024/01/01 05:14:52;;;;;;;5.03;0.75;;;7.10;99.90;;;;;;5092227;28;20036;-74
2024/01/01 05:17:18;;;;;;;5.93;0.60;;;7.10;99.90;;;;;;5090368;28;20530;-74
2024/01/01 05:19:44;;;;;;;0.50;0.50;;;7.10;99.90;;;;;;5089492;28;20044;-74
2024/01/01 05:22:10;;;;;;;1.48;0.57;;;7.20;99.90;;;;;;5091612;28;20067;-77
2024/01/01 05:24:36;;;;;;;3.17;0.95;;;7.20;99.90;;;;;;5099539;28;20047;-81
2024/01/01 05:27:03;;;;;;;0.88;0.40;;;7.20;99.90;;;;;;5077390;28;20063;-79
2024/01/01 05:29:30;;;;;;;4.40;1.17;;;7.20;99.90;;;;;;5075030;28;20071;-76
2024/01/01 05:31:56;;;;;;;0.75;0.28;;;7.20;99.90;;;;;;5093386;28;20507;-74
2024/01/01 05:34:22;;;;;;;9.68;0.98;;;7.20;99.90;;;;;;5073756;28;20032;-75
2024/01/01 05:36:48;;;;;;;3.13;0.30;;;7.20;99.90;;;;;;5090714;28;20067;-73
2024/01/01 05:39:14;;;;;;;0.93;0.25;;;7.30;99.90;;;;;;5094502;28;20036;-73
2024/01/01 05:41:40;;;;;;;1.30;0.50;;;7.30;99.90;;;;;;5077792;28;20484;-73
2024/01/01 05:44:06;;;;;;;0.65;0.20;;;7.30;99.90;;;;;;5090712;28;20050;-72
2024/01/01 05:46:32;;;;;;;0.35;0.20;;;7.30;99.90;;;;;;5074324;28;20075;-74
2024/01/01 05:48:58;;;;;;;0.25;0.13;;;7.30;99.90;;;;;;5090448;28;20179;-73
2024/01/01 05:51:24;;;;;;;0.47;0.32;;;7.30;99.90;;;;;;5085885;28;20052;-72
2024/01/01 05:53:50;;;;;;;2.17;0.73;;;7.30;99.90;;;;;;5088643;28;20043;-75
2024/01/01 05:56:16;;;;;;;0.65;0.17;;;7.30;99.90;;;;;;5090599;28;20101;-74
2024/01/01 05:58:42;;;;;;;0.45;0.28;;;7.40;99.90;;;;;;5094364;28;20043;-73
2024/01/01 06:01:07;;;;;;;0.38;0.20;;;7.30;99.90;;;;;;5076577;28;20075;-73
2024/01/01 06:03:33;;;;;;;1.48;0.35;;;7.30;99.90;;;;;;5077311;28;20036;-73
2024/01/01 06:05:59;;;;;;;2.03;0.68;;;7.40;99.90;;;;;;5074950;28;20376;-72
2024/01/01 06:08:24;;;;;;;1.55;0.40;;;7.30;99.90;;;;;;5093636;28;20082;-72
2024/01/01 06:10:51;;;;;;;0.80;0.35;;;7.30;99.90;;;;;;5091469;28;21460;-72
2024/01/01 06:13:17;;;;;;;1.45;0.30;;;7.30;99.90;;;;;;5075925;28;20047;-72
2024/01/01 06:15:42;;;;;;;1.48;0.30;;;7.30;99.90;;;;;;5096279;28;20036;-73
2024/01/01 06:18:08;;;;;;;0.80;0.25;;;7.40;99.90;;;;;;5097536;28;20083;-74
2024/01/01 06:20:34;;;;;;;1.25;0.30;;;7.30;99.90;;;;;;5096986;28;20698;-73
2024/01/01 06:23:00;;;;;;;1.95;0.30;;;7.40;99.90;;;;;;5095970;28;20040;-73
2024/01/01 06:25:26;;;;;;;3.20;0.38;;;7.30;99.90;;;;;;5094620;28;20237;-73
2024/01/01 06:27:52;;;;;;;1.00;0.68;;;7.40;99.90;;;;;;5100098;28;20138;-73
2024/01/01 06:30:17;;;;;;;5.22;0.30;;;7.40;99.90;;;;;;5083578;28;20445;-74
2024/01/01 06:32:43;;;;;;;0.55;0.30;;;7.40;99.90;;;;;;5090312;28;20039;-74
2024/01/01 06:35:09;;;;;;;2.08;0.73;;;7.40;99.90;;;;;;5087740;28;20507;-74
2024/01/01 06:37:34;;;;;;;0.95;0.22;;;7.40;99.90;;;;;;5074261;28;20127;-74
2024/01/01 06:40:01;;;;;;;4.45;0.45;;;7.40;99.90;;;;;;5089378;28;20078;-74
2024/01/01 06:42:26;;;;;;;2.58;0.47;;;7.40;99.90;;;;;;5079713;28;20063;-73
2024/01/01 06:44:56;;;;;;;4.05;0.20;;;7.40;99.90;;;;;;5098731;28;20294;-74
2024/01/01 06:47:23;;;;;;;1.77;0.17;;;7.40;99.90;;;;;;5092866;28;20040;-73
2024/01/01 06:49:48;;;;;;;0.85;0.32;;;7.40;99.90;;;;;;5079496;28;20086;-73
2024/01/01 06:52:14;;;;;;;0.35;0.20;;;7.40;99.90;;;;;;5094885;28;20036;-73
2024/01/01 06:54:40;;;;;;;6.70;0.57;;;7.40;99.90;;;;;;5092782;28;20067;-73
2024/01/01 06:57:06;;;;;;;0.52;0.25;;;7.40;99.90;;;;;;5075567;28;20543;-73
2024/01/01 06:59:31;;;;;;;0.50;0.35;;;7.40;99.90;;;;;;5089963;28;20101;-73
2024/01/01 07:02:00;;;;;;;1.88;0.38;;;7.40;99.90;;;;;;5090687;28;20490;-73
2024/01/01 07:04:26;;;;;;;0.77;0.47;;;7.40;99.90;;;;;;5088563;28;20075;-73
2024/01/01 07:06:52;;;;;;;0.30;0.17;;;7.40;99.90;;;;;;5088314;28;20048;-73
2024/01/01 07:09:17;;;;;;;4.05;0.73;;;7.40;99.90;;;;;;5086548;28;20036;-72
2024/01/01 07:11:44;;;;;;;12.75;0.75;;;7.30;99.90;;;;;;5085816;28;20029;-71
2024/01/01 07:14:10;;;;;;;5.60;0.55;;;7.40;99.90;;;;;;5082231;28;20040;-71
2024/01/01 07:16:36;;;;;;;1.15;0.50;;;7.30;99.90;;;;;;5086984;28;20032;-71
2024/01/01 07:19:01;;;;;;;1.42;0.43;;;7.30;99.90;;;;;;5086972;28;20510;-70
2024/01/01 07:21:27;;;;;;;1.95;0.73;;;7.30;99.90;;;;;;5083064;28;20123;-71
2024/01/01 07:23:54;;;;;;;2.22;0.63;;;7.30;99.90;;;;;;5086472;28;20036;-70
2024/01/01 07:26:20;;;;;;;0.47;0.28;;;7.30;99.90;;;;;;5081525;28;20040;-71
2024/01/01 07:28:46;;;;;;;3.40;0.35;;;7.40;99.90;;;;;;5084779;28;20044;-70
2024/01/01 07:31:11;;;;;;;1.25;0.20;;;7.30;99.90;;;;;;5085362;28;20044;-70
2024/01/01 07:33:38;;;;;;;0.22;0.22;;;7.30;99.90;;;;;;5085084;28;20036;-70
2024/01/01 07:36:08;;;;;;;0.43;0.20;;;7.30;99.90;;;;;;5084965;28;20048;-70
2024/01/01 07:38:34;;;;;;;1.65;0.20;;;7.30;99.90;;;;;;5087477;28;20496;-70
2024/01/01 07:41:00;;;;;;;0.43;0.17;;;7.40;99.90;;;;;;5090409;28;20051;-70
2024/01/01 07:43:26;;;;;;;1.85;0.55;;;7.40;99.90;;;;;;5085879;28;20127;-70
2024/01/01 07:45:52;;;;;;;1.08;0.22;;;7.50;99.90;;;;;;5086744;28;20115;-71
2024/01/01 07:48:18;;;;;;;3.20;0.22;;;7.40;99.90;;;;;;5086418;28;20050;-71
2024/01/01 07:50:44;;;;;;;0.20;0.10;;;7.40;99.90;;;;;;5087570;28;20059;-71
2024/01/01 07:53:09;;;;;;;1.17;0.40;;;7.40;99.90;;;;;;5084794;28;20059;-70
2024/01/01 07:55:36;;;;;;;1.90;0.20;;;7.50;99.90;;;;;;5090649;28;20074;-70
2024/01/01 07:58:02;;;;;;;1.08;0.22;;;7.50;99.90;;;;;;5085201;28;20036;-71
2024/01/01 08:00:28;;;;;;;3.70;0.47;;;7.50;99.90;;;;;;5088485;28;20114;-71
2024/01/01 08:02:53;;;;;;;1.08;0.30;;;7.60;99.90;;;;;;5073392;28;20036;-70
2024/01/01 08:05:19;;;;;;;0.05;0.03;;;7.60;99.90;;;;;;5083976;28;20032;-70
2024/01/01 08:07:47;;;;;;;0.95;0.22;;;7.60;99.90;;;;;;5087431;28;20036;-70
2024/01/01 08:10:17;;;;;;;0.40;0.40;;;7.60;99.90;;;;;;5090439;28;20055;-69
2024/01/01 08:12:43;;;;;;;2.28;0.47;;;7.60;99.90;;;;;;5089291;28;20514;-71
2024/01/01 08:15:08;;;;;;;1.27;0.45;;;7.60;99.90;;;;;;5085534;28;20067;-70
2024/01/01 08:17:36;;;;;;;0.70;0.40;;;7.60;99.90;;;;;;5089177;28;20118;-70
2024/01/01 08:20:02;;;;;;;5.00;0.45;;;7.70;99.90;;;;;;5089086;28;20159;-71
2024/01/01 08:22:27;;;;;;;3.08;0.45;;;7.70;99.90;;;;;;5073311;28;20032;-70
2024/01/01 08:24:53;;;;;;;5.45;1.25;;;7.70;99.90;;;;;;5071174;28;20066;-71
2024/01/01 08:27:19;;;;;;;4.95;0.55;;;7.70;99.90;;;;;;5072477;28;20487;-73
2024/01/01 08:29:45;;;;;;;2.05;0.45;;;7.70;99.90;;;;;;5070133;28;20057;-73
2024/01/01 08:32:10;;;;;;;1.85;0.82;;;7.70;99.90;;;;;;5088577;28;20457;-74
2024/01/01 08:34:36;;;;;;;2.00;0.68;;;7.70;99.90;;;;;;5086841;28;20043;-76
2024/01/01 08:37:02;;;;;;;1.33;0.40;;;7.70;99.90;;;;;;5088169;28;20044;-75
2024/01/01 08:39:28;;;;;;;0.63;0.40;;;7.70;99.90;;;;;;5089195;28;20093;-76
2024/01/01 08:41:54;;;;;;;2.55;0.30;;;7.70;99.90;;;;;;5087149;28;20480;-75
2024/01/01 08:44:20;;;;;;;0.73;0.50;;;7.70;99.90;;;;;;5090759;28;20450;-74
2024/01/01 08:46:45;;;;;;;0.45;0.25;;;7.70;99.90;;;;;;5093513;28;20101;-73
2024/01/01 08:49:11;;;;;;;2.38;0.45;;;7.70;99.90;;;;;;5096346;28;20046;-73
2024/01/01 08:51:37;;;;;;;3.25;1.13;;;7.70;99.90;;;;;;5093535;28;20063;-73
2024/01/01 08:54:07;;;;;;;1.73;0.47;;;7.70;99.90;;;;;;5097208;28;20032;-73
2024/01/01 08:56:33;;;;;;;4.93;0.63;;;7.70;99.90;;;;;;5096778;28;20035;-73
2024/01/01 08:58:58;;;;;;;6.32;0.52;;;7.70;99.90;;;;;;5098169;28;20044;-73
2024/01/01 09:01:24;;;;;;;0.30;0.30;;;7.70;99.90;;;;;;5094614;28;20399;-72
2024/01/01 09:03:50;;;;;;;9.43;0.47;;;7.70;99.90;;;;;;5093537;28;20113;-72
2024/01/01 09:06:15;;;;;;;2.20;0.43;;;7.70;99.90;;;;;;5085362;28;20093;-72
2024/01/01 09:08:43;;;;;;;0.50;0.30;;;7.70;99.90;;;;;;5093217;28;20487;-72
2024/01/01 09:11:09;;;;;;;1.65;0.45;;;7.70;99.90;;;;;;5085337;28;20040;-71
2024/01/01 09:13:34;;;;;;;0.00;0.00;;;7.60;99.90;;;;;;5088481;28;20032;-72
2024/01/01 09:16:01;;;;;;;4.60;0.93;;;7.70;99.90;;;;;;5088559;28;20047;-72
2024/01/01 09:18:27;;;;;;;0.30;0.20;;;7.60;99.90;;;;;;5086451;28;20043;-72
2024/01/01 09:20:52;;;;;;;0.50;0.13;;;7.70;99.90;;;;;;5101306;28;20496;-71
2024/01/01 09:23:18;;;;;;;5.47;1.15;;;7.70;99.90;;;;;;5084134;28;20526;-71
2024/01/01 09:25:44;;;;;;;0.08;0.03;;;7.70;99.90;;;;;;5070758;28;20113;-71
2024/01/01 09:28:10;;;;;;;1.08;0.20;;;7.80;99.90;;;;;;5087278;28;20040;-71
2024/01/01 09:30:35;;;;;;;0.22;0.17;;;7.90;99.90;;;;;;5080698;28;20087;-71
2024/01/01 09:33:01;;;;;;;2.42;0.90;;;7.90;99.90;;;;;;5083003;28;20433;-71
2024/01/01 09:35:27;;;;;;;0.93;0.73;;;7.90;99.90;;;;;;5086355;28;20036;-72
2024/01/01 09:37:54;;;;;;;1.20;0.75;;;8.00;99.90;;;;;;5082482;28;20043;-71
2024/01/01 09:40:20;;;;;;;3.50;0.60;;;8.00;99.90;;;;;;5082291;28;20148;-73
2024/01/01 09:42:50;;;;;;;3.67;0.68;;;7.90;99.90;;;;;;5074689;28;20108;-72
2024/01/01 09:45:16;;;;;;;0.75;0.25;;;8.00;99.90;;;;;;5082982;28;20126;-72
2024/01/01 09:47:42;;;;;;;1.20;0.45;;;7.90;99.90;;;;;;5081743;28;20040;-73
2024/01/01 09:50:09;;;;;;;0.52;0.32;;;7.90;99.90;;;;;;5067185;28;20368;-73
2024/01/01 09:52:36;;;;;;;0.40;0.17;;;7.90;99.90;;;;;;5086649;28;20036;-74
2024/01/01 09:55:02;;;;;;;4.32;0.52;;;7.90;99.90;;;;;;5083148;28;20115;-74
2024/01/01 09:57:28;;;;;;;1.75;0.25;;;8.00;99.90;;;;;;5088803;28;20038;-73
2024/01/01 09:59:54;;;;;;;3.10;0.38;;;8.10;99.90;;;;;;5084283;28;20351;-73
2024/01/01 10:02:24;;;;;;;0.32;0.20;;;8.10;99.90;;;;;;5089634;28;20484;-73
2024/01/01 10:04:49;;;;;;;0.45;0.17;;;8.10;99.90;;;;;;5086904;28;20511;-73
2024/01/01 10:07:28;;;;;;;0.65;0.30;;;8.10;99.90;;;;;;5080911;28;20082;-73
2024/01/01 10:09:54;;;;;;;2.20;0.52;;;8.10;99.90;;;;;;5066801;28;20442;-73
2024/01/01 10:12:23;;;;;;;1.85;0.38;;;8.10;99.90;;;;;;5082774;28;20036;-73
2024/01/01 10:14:50;;;;;;;6.13;0.35;;;8.10;99.90;;;;;;5083651;28;20289;-73
2024/01/01 10:17:17;;;;;;;1.63;0.13;;;8.10;99.90;;;;;;5066851;28;20472;-72
2024/01/01 10:19:51;;;;;;;0.45;0.35;;;8.20;99.90;;;;;;5086252;28;20510;-72
2024/01/01 10:22:20;;;;;;;4.63;1.00;;;8.20;99.90;;;;;;5084999;28;20491;-72
2024/01/01 10:24:55;;;;;;;0.00;0.00;;;8.20;99.90;;;;;;5069469;28;20294;-72
2024/01/01 10:27:22;;;;;;;3.38;0.47;;;8.20;99.90;;;;;;5084114;28;20044;-72
2024/01/01 10:29:48;;;;;;;3.65;0.00;;;8.20;99.90;;;;;;5084578;28;20122;-72
2024/01/01 10:32:16;;;;;;;1.55;0.35;;;8.20;99.90;;;;;;5082867;28;20052;-71
2024/01/01 10:34:47;;;;;;;2.08;0.25;;;8.30;99.90;;;;;;5085318;28;20451;-71
2024/01/01 10:37:19;;;;;;;0.10;0.10;;;8.40;99.90;;;;;;5064771;28;20046;-72
2024/01/01 10:39:47;;;;;;;1.00;0.32;;;8.30;99.90;;;;;;5086314;28;20505;-71
2024/01/01 10:42:13;;;;;;;1.85;0.17;;;8.40;99.90;;;;;;5079632;28;20052;-72
2024/01/01 10:44:39;;;;;;;1.52;0.60;;;8.40;99.90;;;;;;5084477;28;20531;-71
2024/01/01 10:47:09;;;;;;;3.55;0.65;;;8.50;99.90;;;;;;5084942;28;20044;-71
2024/01/01 10:49:42;;;;;;;0.10;0.10;;;8.60;99.90;;;;;;5084521;28;21111;-71
2024/01/01 10:52:36;;;;;;;0.98;0.20;;;8.60;99.90;;;;;;5084612;28;20043;-71
2024/01/01 10:55:29;;;;;;;2.15;0.38;;;8.50;99.90;;;;;;5087088;28;20515;-71
2024/01/01 10:58:07;;;;;;;1.02;0.63;;;8.50;99.90;;;;;;5087268;28;20568;-71
2024/01/01 11:00:59;;;;;;;4.75;0.30;;;8.40;99.90;;;;;;5084413;28;20044;-71
2024/01/01 11:03:25;;;;;;;2.63;0.55;;;8.50;99.90;;;;;;5085427;28;20074;-72
2024/01/01 11:05:51;;;;;;;1.15;0.17;;;8.60;99.90;;;;;;5082665;28;20083;-72
2024/01/01 11:08:28;;;;;;;0.90;0.22;;;8.50;99.90;;;;;;5086035;28;20081;-71
2024/01/01 11:10:57;;;;;;;1.55;0.32;;;8.50;99.90;;;;;;5084127;28;20412;-71
2024/01/01 11:13:25;;;;;;;0.25;0.22;;;8.50;99.90;;;;;;5090702;28;20222;-71
2024/01/01 11:16:03;;;;;;;0.25;0.10;;;8.40;99.90;;;;;;5089562;28;20032;-71
2024/01/01 11:18:37;;;;;;;2.83;0.40;;;8.30;99.90;;;;;;5090364;28;20074;-71
2024/01/01 11:21:06;;;;;;;0.60;0.28;;;8.30;99.90;;;;;;5089903;28;20052;-71
2024/01/01 11:23:43;;;;;;;6.03;0.45;;;8.40;99.90;;;;;;5090381;28;20401;-71
2024/01/01 11:26:30;;;;;;;0.25;0.15;;;8.40;99.90;;;;;;5085342;28;20570;-71
2024/01/01 11:29:01;;;;;;;0.75;0.20;;;8.50;99.90;;;;;;5089976;28;20055;-71
2024/01/01 11:31:28;;;;;;;0.08;0.00;;;8.40;99.90;;;;;;5088501;28;20048;-71
2024/01/01 11:34:08;;;;;;;0.52;0.20;;;8.40;99.90;;;;;;5090788;28;20447;-71
2024/01/01 11:36:35;;;;;;;0.30;0.22;;;8.50;99.90;;;;;;5086789;28;20449;-71
2024/01/01 11:39:02;;;;;;;0.13;0.10;;;8.50;99.90;;;;;;5091116;28;20074;-71
2024/01/01 11:41:30;;;;;;;2.38;0.20;;;8.60;99.90;;;;;;5090120;28;20051;-71
2024/01/01 11:44:11;;;;;;;2.30;0.10;;;8.60;99.90;;;;;;5090627;28;20034;-71
2024/01/01 11:46:38;;;;;;;3.60;0.30;;;8.70;99.90;;;;;;5088858;28;20085;-71
2024/01/01 11:49:04;;;;;;;0.25;0.20;;;8.70;99.90;;;;;;5090310;28;20112;-71
2024/01/01 11:51:32;;;;;;;0.35;0.03;;;8.80;99.90;;;;;;5088594;28;20083;-71
2024/01/01 11:54:09;;;;;;;0.52;0.05;;;8.80;99.90;;;;;;5073088;28;20042;-71
2024/01/01 11:56:39;;;;;;;0.35;0.10;;;8.80;99.90;;;;;;5088086;28;20040;-71
2024/01/01 11:59:08;;;;;;;0.85;0.20;;;8.90;99.90;;;;;;5089796;28;20068;-71
2024/01/01 12:01:36;;;;;;;2.85;0.20;;;8.90;99.90;;;;;;5087407;28;20032;-71
2024/01/01 12:04:06;;;;;;;3.40;0.30;;;8.90;99.90;;;;;;5089736;28;20509;-70
2024/01/01 12:06:32;;;;;;;2.10;0.20;;;8.90;99.90;;;;;;5085792;28;20046;-70
2024/01/01 12:09:06;;;;;;;3.08;0.32;;;8.80;99.90;;;;;;5088823;28;20062;-71
2024/01/01 12:11:33;;;;;;;0.65;0.10;;;8.80;99.90;;;;;;5088240;28;20547;-71
2024/01/01 12:13:59;;;;;;;2.63;0.22;;;8.90;99.90;;;;;;5087728;28;20079;-71
2024/01/01 12:16:24;;;;;;;2.25;1.00;;;8.90;99.90;;;;;;5091242;28;20064;-71
2024/01/01 12:18:55;;;;;;;5.97;0.80;;;8.80;99.90;;;;;;5089803;28;20446;-70
2024/01/01 12:21:21;;;;;;;4.93;1.52;;;8.80;99.90;;;;;;5070571;28;20047;-70
2024/01/01 12:23:48;;;;;;;0.63;0.40;;;8.80;99.90;;;;;;5089328;28;20675;-71
2024/01/01 12:26:21;;;;;;;4.55;2.08;;;8.90;99.90;;;;;;5087093;28;20036;-70
2024/01/01 12:29:04;;;;;;;1.67;0.85;;;8.90;99.90;;;;;;5083530;28;20036;-70
2024/01/01 12:31:29;;;;;;;2.55;1.20;;;9.00;99.90;;;;;;5087011;28;20040;-70
2024/01/01 12:33:55;;;;;;;2.75;0.52;;;9.10;99.90;;;;;;5087592;28;20341;-71
2024/01/01 12:36:21;;;;;;;0.43;0.30;;;9.10;99.90;;;;;;5069534;28;20043;-71
2024/01/01 12:38:47;;;;;;;3.10;0.35;;;9.10;99.90;;;;;;5088581;28;20059;-70
2024/01/01 12:41:17;;;;;;;13.52;6.07;;;9.10;99.90;;;;;;5071925;28;20101;-71
2024/01/01 12:43:43;;;;;;;3.67;1.45;;;9.10;99.90;;;;;;5086322;28;20040;-70
2024/01/01 12:46:08;;;;;;;4.05;1.80;;;9.10;99.90;;;;;;5087686;28;20129;-71
2024/01/01 12:48:34;;;;;;;1.20;0.30;;;9.10;99.90;;;;;;5070540;28;20035;-71
2024/01/01 12:51:00;;;;;;;0.45;0.32;;;9.10;99.90;;;;;;5088636;28;20139;-71
2024/01/01 12:53:26;;;;;;;6.72;0.38;;;9.20;99.90;;;;;;5087326;28;20127;-71